• Join FlightAware (Why Join?)
  • Login
  • US Flag 
06:45AM EDT


 

Airport Tracker/Info


-or-


 

Live Flight TrackerFlight Track Log ✈ N629C ✈ 21-Apr-2013 ✈ T94 - KADS

Flight Track Log - Related Links

Times and Time Zones

All times are in EDT time to prevent confusion due to time zone crossing. See the N629C flight status page for this flight to view local times or setup timezone preferences in your user account.

Time Position Orientation Groundspeed Altitude Reporting Facility
EDT Latitude Longitude Course Direction KTS MPH feet Rate Location/Type
07:42PM 29.9497 -98.2458 24° Northeast 156 180 7,300  Level Houston Center
07:43PM 29.9933 -98.2239 24° Northeast 162 186 7,600 360 Climbing Houston Center
07:44PM 30.0367 -98.2050 21° North 152 175 8,100 480 Climbing Houston Center
07:45PM 30.0750 -98.1881 21° North 147 169 8,600 480 Climbing Houston Center
07:46PM 30.1167 -98.1686 22° Northeast 151 174 9,100 420 Climbing Houston Center
07:47PM 30.1567 -98.1514 20° North 153 176 9,500 180 Climbing Houston Center
07:48PM 30.2008 -98.1314 21° North 173 199 9,500  Level Houston Center
07:49PM 30.2522 -98.1069 22° Northeast 185 213 9,500  Level Houston Center
07:50PM 30.3008 -98.0856 21° North 188 216 9,500  Level Houston Center
07:51PM 30.3453 -98.0647 22° Northeast 188 216 9,500  Level Houston Center
07:52PM 30.3950 -98.0425 21° North 190 219 9,500  Level Houston Center
07:53PM 30.4539 -98.0167 21° North 191 220 9,500  Level Houston Center
07:54PM 30.5033 -97.9939 22° Northeast 189 217 9,500  Level Houston Center
07:55PM 30.5536 -97.9711 21° North 191 220 9,500  Level Houston Center
07:56PM 30.6033 -97.9472 22° Northeast 191 220 9,500  Level Houston Center
07:57PM 30.6539 -97.9247 21° North 192 221 9,500  Level Houston Center
07:58PM 30.7042 -97.9014 22° Northeast 192 221 9,500  Level Houston Center
07:59PM 30.7539 -97.8792 21° North 191 220 9,500  Level Houston Center
08:00PM 30.8025 -97.8572 21° North 187 215 9,500  Level Houston Center
08:01PM 30.8608 -97.8306 21° North 189 217 9,500  Level Houston Center
08:02PM 30.8953 -97.7983 39° Northeast 202 232 9,500  Level Fort Worth Center
08:03PM 30.9392 -97.7547 40° Northeast 200 230 9,500  Level Fort Worth Center
08:04PM 30.9769 -97.7186 39° Northeast 201 231 9,500  Level Fort Worth Center
08:05PM 31.0147 -97.6825 39° Northeast 198 228 9,500  Level Fort Worth Center
08:06PM 31.0606 -97.6389 39° Northeast 199 229 9,500  Level Fort Worth Center
08:07PM 31.1044 -97.5953 40° Northeast 200 230 9,500  Level Fort Worth Center
08:08PM 31.1464 -97.5542 40° Northeast 199 229 9,500  Level Fort Worth Center
08:09PM 31.1964 -97.5322 21° North 186 214 9,500 -240 Level Fort Worth Center
08:11PM 31.2479 -97.5209 19° North  Level FlightAware Approximate
08:18PM 31.5695 -97.3938 18° North  Level FlightAware Approximate
08:19PM 31.6155 -97.3761 18° North  Level FlightAware Approximate
08:20PM 31.6616 -97.3583 18° North  Level FlightAware Approximate
08:21PM 31.7076 -97.3405 18° North  Level FlightAware Approximate
08:22PM 31.7537 -97.3227 18° North  Level FlightAware Approximate
08:23PM 31.7997 -97.3049 18° North  Level FlightAware Approximate
08:24PM 31.8458 -97.2871 18° North  Level FlightAware Approximate
08:25PM 31.8918 -97.2692 18° North  Level FlightAware Approximate
08:26PM 31.9379 -97.2514 18° North  Level FlightAware Approximate
08:27PM 31.9839 -97.2335 18° North  Level FlightAware Approximate
08:28PM 32.0299 -97.2156 18° North  Level FlightAware Approximate
08:29PM 32.0535 -97.1573 64° Northeast  Level FlightAware Approximate
08:30PM 32.1059 -97.1391 12° North  Level Estimated
08:30PM 32.2167 -97.1333 16° North 179 206 5,400  Level Dallas / Fort Worth TRACON
08:31PM 32.1548 -97.1101 27° Northeast  Level FlightAware Approximate
08:31PM 32.2667 -97.1167 16° North 177 204 5,000  Level Dallas / Fort Worth TRACON
08:32PM 32.2036 -97.0810 27° Northeast  Level FlightAware Approximate
08:32PM 32.3167 -97.1000 16° North 178 205 5,000  Level Dallas / Fort Worth TRACON
08:33PM 32.2524 -97.0518 27° Northeast  Level FlightAware Approximate
08:33PM 32.3500 -97.0833 23° Northeast 174 200 5,000  Level Dallas / Fort Worth TRACON
08:34PM 32.3054 -97.0360 15° North  Level Estimated
08:34PM 32.4000 -97.0667 16° North 172 198 5,000  Level Dallas / Fort Worth TRACON
08:35PM 32.3579 -97.0180 16° North  Level FlightAware Approximate
08:35PM 32.4500 -97.0333 29° Northeast 171 197 5,000  Level Dallas / Fort Worth TRACON
08:36PM 32.5000 -97.0167 16° North 175 201 5,000 -180 Level Dallas / Fort Worth TRACON
08:37PM 32.5500 -97.0000 16° North 180 207 4,700 -360 Descending Dallas / Fort Worth TRACON
08:38PM 32.5833 -96.9833 23° Northeast 176 203 4,400 -420 Descending Dallas / Fort Worth TRACON
08:39PM 32.6333 -96.9667 16° North 178 205 4,000 -300 Descending Dallas / Fort Worth TRACON
08:40PM 32.6833 -96.9500 16° North 167 192 3,900 -60 Descending Dallas / Fort Worth TRACON
08:41PM 32.7167 -96.9167 40° Northeast 165 190 3,900 -60 Level Dallas / Fort Worth TRACON
08:42PM 32.7500 -96.9000 23° Northeast 164 189 3,800 -300 Descending Dallas / Fort Worth TRACON
08:43PM 32.8000 -96.8833 16° North 180 207 3,300 -360 Descending Dallas / Fort Worth TRACON
08:44PM 32.8500 -96.8833 360° North 172 198 3,100 -240 Descending Dallas / Fort Worth TRACON
08:45PM 32.9000 -96.8667 16° North 157 181 2,900 -600 Descending Dallas / Fort Worth TRACON
08:46PM 32.9333 -96.8500 23° Northeast 161 185 2,000 -780 Descending Dallas / Fort Worth TRACON
08:47PM 32.9667 -96.8667 337° Northwest 132 152 1,400 -540 Descending Dallas / Fort Worth TRACON
08:48PM 32.9833 -96.8500 40° Northeast 95 109 1,000 -480 Descending Dallas / Fort Worth TRACON